createdAt,value
2023-01-29T00:00:52.418Z,0.00
2023-01-29T00:01:52.827Z,0.00
2023-01-29T00:02:53.169Z,0.00
2023-01-29T00:03:53.520Z,0.00
2023-01-29T00:04:58.725Z,0.00
2023-01-29T00:05:54.237Z,0.00
2023-01-29T00:06:54.594Z,0.00
2023-01-29T00:07:54.959Z,0.00
2023-01-29T00:08:55.250Z,0.00
2023-01-29T00:09:55.606Z,0.00
2023-01-29T00:10:55.991Z,0.00
2023-01-29T00:11:56.309Z,0.00
2023-01-29T00:12:56.696Z,0.00
2023-01-29T00:13:57.053Z,0.00
2023-01-29T00:14:57.337Z,0.00
2023-01-29T00:15:57.674Z,0.00
2023-01-29T00:16:58.100Z,0.00
2023-01-29T00:17:58.353Z,0.00
2023-01-29T00:18:58.747Z,0.00
2023-01-29T00:19:59.070Z,0.00
2023-01-29T00:20:59.490Z,0.00
2023-01-29T00:21:59.784Z,0.00
2023-01-29T00:23:00.109Z,0.00
2023-01-29T00:24:00.601Z,0.00
2023-01-29T00:25:00.806Z,0.00
2023-01-29T00:26:01.192Z,0.00
2023-01-29T00:27:01.538Z,0.00
2023-01-29T00:28:01.889Z,0.00
2023-01-29T00:29:02.234Z,0.00
2023-01-29T00:30:02.566Z,0.00
2023-01-29T00:31:03.042Z,0.00
2023-01-29T00:32:03.455Z,0.00
2023-01-29T00:33:03.612Z,0.00
2023-01-29T00:34:03.966Z,0.00
2023-01-29T00:35:04.315Z,0.00
2023-01-29T00:36:04.654Z,0.00
2023-01-29T00:37:05.064Z,0.00
2023-01-29T00:38:05.387Z,0.00
2023-01-29T00:39:05.673Z,0.00
2023-01-29T00:40:06.020Z,0.00
2023-01-29T00:41:06.405Z,0.00
2023-01-29T00:42:06.750Z,0.00
2023-01-29T00:43:07.103Z,0.00
2023-01-29T00:44:07.483Z,0.00
2023-01-29T00:45:07.826Z,0.00
2023-01-29T00:46:08.141Z,0.00
2023-01-29T00:47:08.507Z,0.00
2023-01-29T00:48:08.869Z,0.00
2023-01-29T00:49:09.274Z,0.00
2023-01-29T00:50:09.563Z,0.00
2023-01-29T00:51:09.930Z,0.00
2023-01-29T00:52:10.305Z,0.00
2023-01-29T00:53:10.638Z,0.00
2023-01-29T00:54:10.978Z,0.00
2023-01-29T00:55:11.376Z,0.00
2023-01-29T00:56:11.813Z,0.00
2023-01-29T00:57:12.051Z,0.00
2023-01-29T00:58:12.381Z,0.00
2023-01-29T00:59:13.320Z,0.00
2023-01-29T01:00:13.153Z,0.00
2023-01-29T01:01:13.525Z,0.00
2023-01-29T01:02:13.850Z,0.00
2023-01-29T01:03:14.173Z,0.00
2023-01-29T01:04:14.478Z,0.00
2023-01-29T01:05:14.829Z,0.00
2023-01-29T01:06:15.168Z,0.00
2023-01-29T01:07:16.555Z,0.00
2023-01-29T01:08:15.866Z,0.00
2023-01-29T01:09:16.208Z,0.00
2023-01-29T01:10:16.926Z,0.00
2023-01-29T01:11:16.968Z,0.00
2023-01-29T01:12:17.335Z,0.00
2023-01-29T01:13:17.684Z,0.00
2023-01-29T01:14:18.014Z,0.00
2023-01-29T01:15:18.372Z,0.00
2023-01-29T01:16:18.858Z,0.00
2023-01-29T01:17:19.106Z,0.00
2023-01-29T01:18:19.529Z,0.00
2023-01-29T01:19:19.783Z,0.00
2023-01-29T01:20:20.140Z,0.00
2023-01-29T01:21:20.498Z,0.00
2023-01-29T01:22:20.847Z,0.00
2023-01-29T01:23:21.199Z,0.00
2023-01-29T01:24:21.649Z,0.00
2023-01-29T01:25:21.893Z,0.00
2023-01-29T01:26:22.237Z,0.00
2023-01-29T01:27:22.597Z,0.00
2023-01-29T01:28:22.942Z,0.00
2023-01-29T01:29:23.270Z,0.00
2023-01-29T01:30:23.682Z,0.00
2023-01-29T01:31:24.166Z,0.00
2023-01-29T01:32:24.385Z,0.00
2023-01-29T01:33:24.683Z,0.00
2023-01-29T01:34:25.066Z,0.00
2023-01-29T01:35:25.396Z,0.00
2023-01-29T01:36:25.777Z,0.00
2023-01-29T01:37:26.158Z,0.00
2023-01-29T01:38:32.971Z,0.00
2023-01-29T01:39:26.783Z,0.00
2023-01-29T01:40:27.112Z,0.00
2023-01-29T01:41:27.517Z,0.00
2023-01-29T01:42:27.866Z,0.00
2023-01-29T01:43:28.213Z,0.00
2023-01-29T01:44:28.541Z,0.00
2023-01-29T01:45:28.909Z,0.00
2023-01-29T01:46:29.231Z,0.00
2023-01-29T01:47:29.648Z,0.00
2023-01-29T01:48:29.966Z,0.00
2023-01-29T01:49:30.304Z,0.00
2023-01-29T01:50:30.676Z,0.00
2023-01-29T01:51:30.993Z,0.00
2023-01-29T01:52:31.384Z,0.00
2023-01-29T01:53:31.733Z,0.00
2023-01-29T01:54:32.058Z,0.00
2023-01-29T01:55:32.420Z,0.00
2023-01-29T01:56:33.705Z,0.00
2023-01-29T01:57:33.158Z,0.00
2023-01-29T01:58:33.553Z,0.00
2023-01-29T01:59:33.860Z,0.00
2023-01-29T02:00:34.368Z,0.00
2023-01-29T02:01:34.561Z,0.00
2023-01-29T02:02:34.960Z,0.00
2023-01-29T02:03:35.288Z,0.00
2023-01-29T02:04:35.674Z,0.00
2023-01-29T02:05:36.016Z,0.00
2023-01-29T02:06:36.355Z,0.00
2023-01-29T02:07:36.698Z,0.00
2023-01-29T02:08:37.047Z,0.00
2023-01-29T02:09:37.404Z,0.00
2023-01-29T02:10:37.812Z,0.00
2023-01-29T02:11:38.118Z,0.00
2023-01-29T02:12:38.511Z,0.00
2023-01-29T02:13:38.826Z,0.00
2023-01-29T02:14:39.234Z,0.00
2023-01-29T02:15:39.585Z,0.00
2023-01-29T02:16:39.921Z,0.00
2023-01-29T02:17:40.421Z,0.00
2023-01-29T02:18:40.635Z,0.00
2023-01-29T02:19:40.987Z,0.00
2023-01-29T02:20:41.337Z,0.00
2023-01-29T02:21:41.700Z,0.00
2023-01-29T02:22:42.122Z,0.00
2023-01-29T02:23:42.392Z,0.00
2023-01-29T02:24:42.781Z,0.00
2023-01-29T02:25:43.130Z,0.00
2023-01-29T02:26:43.444Z,0.00
2023-01-29T02:27:43.828Z,0.00
2023-01-29T02:28:44.190Z,0.00
2023-01-29T02:29:44.491Z,0.00
2023-01-29T02:30:44.949Z,0.00
2023-01-29T02:31:45.280Z,0.00
2023-01-29T02:32:45.624Z,0.00
2023-01-29T02:33:45.919Z,0.00
2023-01-29T02:34:46.301Z,0.00
2023-01-29T02:35:46.637Z,0.00
2023-01-29T02:36:46.994Z,0.00
2023-01-29T02:37:47.351Z,0.00
2023-01-29T02:38:47.700Z,0.00
2023-01-29T02:39:48.089Z,0.00
2023-01-29T02:40:48.398Z,0.00
2023-01-29T02:41:48.796Z,0.00
2023-01-29T02:42:49.158Z,0.00
2023-01-29T02:43:49.451Z,0.00
2023-01-29T02:44:49.837Z,0.00
2023-01-29T02:45:50.184Z,0.00
2023-01-29T02:46:50.510Z,0.00
2023-01-29T02:47:50.909Z,0.00
2023-01-29T02:48:51.240Z,0.00
2023-01-29T02:49:51.579Z,0.00
2023-01-29T02:50:51.924Z,0.00
2023-01-29T02:51:52.257Z,0.00
2023-01-29T02:52:52.608Z,0.00
2023-01-29T02:53:52.937Z,0.00
2023-01-29T02:54:53.305Z,0.00
2023-01-29T02:55:53.660Z,0.00
2023-01-29T02:56:53.962Z,0.00
2023-01-29T02:57:54.329Z,0.00
2023-01-29T02:58:54.694Z,0.00
2023-01-29T02:59:55.026Z,0.00
2023-01-29T03:00:55.407Z,0.00
2023-01-29T03:01:55.780Z,0.00
2023-01-29T03:02:56.087Z,0.00
2023-01-29T03:03:56.418Z,0.00
2023-01-29T03:04:56.751Z,0.00
2023-01-29T03:05:57.106Z,0.00
2023-01-29T03:06:57.429Z,0.00
2023-01-29T03:07:57.774Z,0.00
2023-01-29T03:08:58.120Z,0.00
2023-01-29T03:09:58.457Z,0.00
2023-01-29T03:10:58.803Z,0.00
2023-01-29T03:11:59.142Z,0.00
2023-01-29T03:12:59.478Z,0.00
2023-01-29T03:13:59.845Z,0.00
2023-01-29T03:15:00.160Z,0.00
2023-01-29T03:16:00.531Z,0.00
2023-01-29T03:17:00.896Z,0.00
2023-01-29T03:18:01.226Z,0.00
2023-01-29T03:19:01.602Z,0.00
2023-01-29T03:20:01.926Z,0.00
2023-01-29T03:21:02.252Z,0.00
2023-01-29T03:22:02.599Z,0.00
2023-01-29T03:23:02.948Z,0.00
2023-01-29T03:24:03.354Z,0.00
2023-01-29T03:25:03.637Z,0.00
2023-01-29T03:26:04.003Z,0.00
2023-01-29T03:27:04.341Z,0.00
2023-01-29T03:28:04.690Z,0.00
2023-01-29T03:29:05.028Z,0.00
2023-01-29T03:30:05.371Z,0.00
2023-01-29T03:31:05.735Z,0.00
2023-01-29T03:32:06.138Z,0.00
2023-01-29T03:33:06.453Z,0.00
2023-01-29T03:34:06.821Z,0.00
2023-01-29T03:35:07.094Z,0.00
2023-01-29T03:36:07.433Z,0.00
2023-01-29T03:37:07.777Z,0.00
2023-01-29T03:38:08.199Z,0.00
2023-01-29T03:39:08.500Z,0.00
2023-01-29T03:40:08.861Z,0.00
2023-01-29T03:41:09.202Z,0.00
2023-01-29T03:42:09.587Z,0.00
2023-01-29T03:43:09.908Z,0.00
2023-01-29T03:44:10.220Z,0.00
2023-01-29T03:45:10.595Z,0.00
2023-01-29T03:46:10.956Z,0.00
2023-01-29T03:47:11.303Z,0.00
2023-01-29T03:48:11.684Z,0.00
2023-01-29T03:49:11.995Z,0.00
2023-01-29T03:50:12.335Z,0.00
2023-01-29T03:51:12.673Z,0.00
2023-01-29T03:52:13.062Z,0.00
2023-01-29T03:53:13.405Z,0.00
2023-01-29T03:54:13.766Z,0.00
2023-01-29T03:55:14.096Z,0.00
2023-01-29T03:56:14.549Z,0.00
2023-01-29T03:57:14.824Z,0.00
2023-01-29T03:58:15.203Z,0.00
2023-01-29T03:59:15.513Z,0.00
2023-01-29T04:00:16.313Z,0.00
2023-01-29T04:01:16.260Z,0.00
2023-01-29T04:02:16.592Z,0.00
2023-01-29T04:03:16.974Z,0.00
2023-01-29T04:04:17.309Z,0.00
2023-01-29T04:05:17.631Z,0.00
2023-01-29T04:06:17.998Z,0.00
2023-01-29T04:07:18.314Z,0.00
2023-01-29T04:08:18.671Z,0.00
2023-01-29T04:09:19.031Z,0.00
2023-01-29T04:10:19.359Z,0.00
2023-01-29T04:11:19.689Z,0.00
2023-01-29T04:12:20.071Z,0.00
2023-01-29T04:13:20.422Z,0.00
2023-01-29T04:14:20.773Z,0.00
2023-01-29T04:15:21.104Z,0.00
2023-01-29T04:16:21.469Z,0.00
2023-01-29T04:17:21.792Z,0.00
2023-01-29T04:18:22.153Z,0.00
2023-01-29T04:19:22.493Z,0.00
2023-01-29T04:20:22.840Z,0.00
2023-01-29T04:21:23.210Z,0.00
2023-01-29T04:22:23.521Z,0.00
2023-01-29T04:23:23.891Z,0.00
2023-01-29T04:24:24.254Z,0.00
2023-01-29T04:25:24.576Z,0.00
2023-01-29T04:26:24.953Z,0.00
2023-01-29T04:27:25.291Z,0.00
2023-01-29T04:28:25.676Z,0.00
2023-01-29T04:29:27.406Z,0.00
2023-01-29T04:30:26.372Z,0.00
2023-01-29T04:31:26.778Z,0.00
2023-01-29T04:32:27.058Z,0.00
2023-01-29T04:33:27.462Z,0.00
2023-01-29T04:34:27.740Z,0.00
2023-01-29T04:35:28.117Z,0.00
2023-01-29T04:36:28.449Z,0.00
2023-01-29T04:37:28.790Z,0.00
2023-01-29T04:38:29.187Z,0.00
2023-01-29T04:39:29.486Z,0.00
2023-01-29T04:40:29.840Z,0.00
2023-01-29T04:41:30.169Z,0.00
2023-01-29T04:42:30.514Z,0.00
2023-01-29T04:43:30.876Z,0.00
2023-01-29T04:44:31.205Z,0.00
2023-01-29T04:45:31.546Z,0.00
2023-01-29T04:46:31.904Z,0.00
2023-01-29T04:47:32.276Z,0.00
2023-01-29T04:48:32.608Z,0.00
2023-01-29T04:49:32.921Z,0.00
2023-01-29T04:50:33.254Z,0.00
2023-01-29T04:51:33.650Z,0.00
2023-01-29T04:52:33.982Z,0.00
2023-01-29T04:53:34.305Z,0.00
2023-01-29T04:54:36.450Z,0.00
2023-01-29T04:55:34.967Z,0.00
2023-01-29T04:56:35.349Z,0.00
2023-01-29T04:57:35.717Z,0.00
2023-01-29T04:58:36.082Z,0.00
2023-01-29T04:59:36.430Z,0.00
2023-01-29T05:00:36.767Z,0.00
2023-01-29T05:01:37.147Z,0.00
2023-01-29T05:02:37.545Z,0.00
2023-01-29T05:03:37.825Z,0.00
2023-01-29T05:04:38.171Z,0.00
2023-01-29T05:05:38.496Z,0.00
2023-01-29T05:06:38.860Z,0.00
2023-01-29T05:07:39.193Z,0.00
2023-01-29T05:08:39.554Z,0.00
2023-01-29T05:09:39.917Z,0.00
2023-01-29T05:10:40.263Z,0.00
2023-01-29T05:11:40.598Z,0.00
2023-01-29T05:12:40.995Z,0.00
2023-01-29T05:13:41.335Z,0.00
2023-01-29T05:14:41.679Z,0.00
2023-01-29T05:15:42.048Z,0.00
2023-01-29T05:16:42.371Z,0.00
2023-01-29T05:17:42.691Z,0.00
2023-01-29T05:18:43.072Z,0.00
2023-01-29T05:19:43.432Z,0.00
2023-01-29T05:20:43.799Z,0.00
2023-01-29T05:21:44.204Z,0.00
2023-01-29T05:22:44.463Z,0.00
2023-01-29T05:23:44.824Z,0.00
2023-01-29T05:24:45.156Z,0.00
2023-01-29T05:25:45.510Z,0.00
2023-01-29T05:26:45.845Z,0.00
2023-01-29T05:27:46.244Z,0.00
2023-01-29T05:28:46.576Z,0.00
2023-01-29T05:29:46.936Z,0.00
2023-01-29T05:30:47.324Z,0.00
2023-01-29T05:31:47.695Z,0.00
2023-01-29T05:32:47.976Z,0.00
2023-01-29T05:33:48.375Z,0.00
2023-01-29T05:34:48.692Z,0.00
2023-01-29T05:35:49.023Z,0.00
2023-01-29T05:36:49.376Z,0.00
2023-01-29T05:37:49.712Z,0.00
2023-01-29T05:38:50.105Z,0.00
2023-01-29T05:39:50.416Z,0.00
2023-01-29T05:40:50.764Z,0.00
2023-01-29T05:41:51.114Z,0.00
2023-01-29T05:42:51.452Z,0.00
2023-01-29T05:43:51.822Z,0.00
2023-01-29T05:44:52.180Z,0.00
2023-01-29T05:45:52.480Z,0.00
2023-01-29T05:46:52.893Z,0.00
2023-01-29T05:47:53.192Z,0.00
2023-01-29T05:48:53.582Z,0.00
2023-01-29T05:49:53.914Z,0.00
2023-01-29T05:50:54.243Z,0.00
2023-01-29T05:51:54.575Z,0.00
2023-01-29T05:52:54.917Z,0.00
2023-01-29T05:53:55.258Z,0.00
2023-01-29T05:54:55.688Z,0.00
2023-01-29T05:55:56.002Z,0.00
2023-01-29T05:56:56.300Z,0.00
2023-01-29T05:57:56.659Z,0.00
2023-01-29T05:58:57.025Z,0.00
2023-01-29T05:59:57.390Z,0.00
2023-01-29T06:00:57.719Z,0.00
2023-01-29T06:01:58.106Z,0.00
2023-01-29T06:02:58.493Z,0.00
2023-01-29T06:03:58.842Z,0.00
2023-01-29T06:04:59.135Z,0.00
2023-01-29T06:05:59.514Z,0.00
2023-01-29T06:06:59.841Z,0.00
2023-01-29T06:08:00.207Z,0.00
2023-01-29T06:09:00.570Z,0.00
2023-01-29T06:10:00.937Z,0.00
2023-01-29T06:11:01.272Z,0.00
2023-01-29T06:12:01.662Z,0.00
2023-01-29T06:13:01.992Z,0.00
2023-01-29T06:14:02.350Z,0.00
2023-01-29T06:15:02.683Z,0.00
2023-01-29T06:16:03.100Z,0.00
2023-01-29T06:17:03.437Z,0.00
2023-01-29T06:18:03.756Z,0.00
2023-01-29T06:19:04.101Z,0.00
2023-01-29T06:20:04.433Z,0.00
2023-01-29T06:21:04.774Z,0.00
2023-01-29T06:22:05.136Z,0.00
2023-01-29T06:23:05.473Z,0.00
2023-01-29T06:24:05.871Z,0.00
2023-01-29T06:25:06.162Z,0.00
2023-01-29T06:26:06.526Z,0.00
2023-01-29T06:27:06.885Z,0.00
2023-01-29T06:28:07.194Z,0.00
2023-01-29T06:29:07.562Z,0.00
2023-01-29T06:30:07.916Z,0.00
2023-01-29T06:31:37.293Z,0.00
2023-01-29T06:32:08.685Z,0.00
2023-01-29T06:33:08.967Z,0.00
2023-01-29T06:34:09.391Z,0.00
2023-01-29T06:35:09.693Z,0.00
2023-01-29T06:36:10.051Z,0.00
2023-01-29T06:37:10.400Z,0.00
2023-01-29T06:38:10.729Z,0.00
2023-01-29T06:39:11.116Z,0.00
2023-01-29T06:40:11.409Z,0.00
2023-01-29T06:41:11.765Z,0.00
2023-01-29T06:42:12.107Z,0.00
2023-01-29T06:43:12.447Z,0.00
2023-01-29T06:44:12.798Z,0.00
2023-01-29T06:45:13.139Z,0.00
2023-01-29T06:46:13.494Z,0.00
2023-01-29T06:47:13.832Z,0.00
2023-01-29T06:48:14.185Z,0.00
2023-01-29T06:49:14.539Z,0.00
2023-01-29T06:50:15.367Z,0.00
2023-01-29T06:51:15.280Z,0.00
2023-01-29T06:52:15.650Z,0.00
2023-01-29T06:53:15.987Z,0.00
2023-01-29T06:54:16.348Z,0.00
2023-01-29T06:55:16.724Z,0.00
2023-01-29T06:56:17.105Z,0.00
2023-01-29T06:57:17.414Z,0.00
2023-01-29T06:58:17.668Z,1.00
2023-01-29T06:59:18.093Z,0.00
2023-01-29T07:00:18.786Z,0.00
2023-01-29T07:01:34.548Z,0.00
2023-01-29T07:02:19.166Z,0.00
2023-01-29T07:03:19.578Z,0.00
2023-01-29T07:04:19.797Z,1.00
2023-01-29T07:05:20.062Z,1.00
2023-01-29T07:06:20.315Z,1.00
2023-01-29T07:07:20.653Z,2.00
2023-01-29T07:08:20.902Z,2.00
2023-01-29T07:09:21.248Z,2.00
2023-01-29T07:10:21.361Z,2.00
2023-01-29T07:11:21.679Z,2.00
2023-01-29T07:12:21.916Z,2.00
2023-01-29T07:13:22.201Z,2.00
2023-01-29T07:14:22.516Z,3.00
2023-01-29T07:15:22.774Z,3.00
2023-01-29T07:16:23.140Z,3.00
2023-01-29T07:17:23.386Z,5.00
2023-01-29T07:18:23.667Z,2.00
2023-01-29T07:19:23.981Z,7.00
2023-01-29T07:20:24.232Z,7.00
2023-01-29T07:21:24.526Z,7.00
2023-01-29T07:22:24.812Z,8.00
2023-01-29T07:23:25.151Z,6.00
2023-01-29T07:24:25.444Z,5.00
2023-01-29T07:25:25.746Z,8.00
2023-01-29T07:26:25.981Z,2.00
2023-01-29T07:27:26.239Z,8.00
2023-01-29T07:28:26.403Z,12.00
2023-01-29T07:29:26.597Z,9.00
2023-01-29T07:30:26.750Z,13.00
2023-01-29T07:31:27.107Z,12.00
2023-01-29T07:32:27.213Z,11.00
2023-01-29T07:33:27.383Z,12.00
2023-01-29T07:34:27.572Z,16.00
2023-01-29T07:35:27.810Z,15.00
2023-01-29T07:36:27.982Z,16.00
2023-01-29T07:37:28.136Z,14.00
2023-01-29T07:38:28.444Z,16.00
2023-01-29T07:39:28.627Z,19.00
2023-01-29T07:40:28.824Z,21.00
2023-01-29T07:41:29.103Z,22.00
2023-01-29T07:42:29.279Z,20.00
2023-01-29T07:43:29.540Z,25.00
2023-01-29T07:44:29.717Z,25.00
2023-01-29T07:45:29.967Z,18.00
2023-01-29T07:46:30.014Z,22.00
2023-01-29T07:47:30.178Z,22.00
2023-01-29T07:48:30.373Z,27.00
2023-01-29T07:49:30.532Z,27.00
2023-01-29T07:50:30.677Z,28.00
2023-01-29T07:51:31.000Z,29.00
2023-01-29T07:52:31.161Z,36.00
2023-01-29T07:53:31.308Z,26.00
2023-01-29T07:54:31.640Z,28.00
2023-01-29T07:55:31.805Z,31.00
2023-01-29T07:56:31.945Z,28.00
2023-01-29T07:57:32.132Z,29.00
2023-01-29T07:58:32.982Z,31.00
2023-01-29T07:59:32.666Z,29.00
2023-01-29T08:00:32.792Z,30.00
2023-01-29T08:01:32.935Z,35.00
2023-01-29T08:02:33.289Z,33.00
2023-01-29T08:03:33.509Z,35.00
2023-01-29T08:04:33.737Z,34.00
2023-01-29T08:05:33.851Z,40.00
2023-01-29T08:06:34.124Z,36.00
2023-01-29T08:07:34.436Z,42.00
2023-01-29T08:08:34.744Z,40.00
2023-01-29T08:09:35.008Z,41.00
2023-01-29T08:10:35.181Z,37.00
2023-01-29T08:11:35.471Z,38.00
2023-01-29T08:12:35.806Z,36.00
2023-01-29T08:13:36.076Z,33.00
2023-01-29T08:14:36.274Z,31.00
2023-01-29T08:15:38.739Z,30.00
2023-01-29T08:16:36.932Z,33.00
2023-01-29T08:17:49.101Z,36.00
2023-01-29T08:18:37.307Z,33.00
2023-01-29T08:19:37.493Z,34.00
2023-01-29T08:20:37.789Z,36.00
2023-01-29T08:21:37.956Z,34.00
2023-01-29T08:22:38.251Z,40.00
2023-01-29T08:23:38.380Z,42.00
2023-01-29T08:24:53.303Z,40.00
2023-01-29T08:25:38.757Z,40.00
2023-01-29T08:26:39.013Z,44.00
2023-01-29T08:27:39.203Z,46.00
2023-01-29T08:28:39.356Z,44.00
2023-01-29T08:29:39.711Z,42.00
2023-01-29T08:30:39.986Z,44.00
2023-01-29T08:31:40.279Z,45.00
2023-01-29T08:32:40.391Z,47.00
2023-01-29T08:33:40.577Z,43.00
2023-01-29T08:34:40.770Z,44.00
2023-01-29T08:35:40.893Z,40.00
2023-01-29T08:36:41.208Z,36.00
2023-01-29T08:37:41.384Z,31.00
2023-01-29T08:38:41.520Z,37.00
2023-01-29T08:40:41.874Z,30.00
2023-01-29T08:41:42.181Z,26.00
2023-01-29T08:42:42.448Z,26.00
2023-01-29T08:43:42.612Z,27.00
2023-01-29T08:44:42.798Z,33.00
2023-01-29T08:45:43.041Z,29.00
2023-01-29T08:46:43.117Z,26.00
2023-01-29T08:47:43.414Z,26.00
2023-01-29T08:48:43.596Z,31.00
2023-01-29T08:49:43.888Z,31.00
2023-01-29T08:50:44.136Z,26.00
2023-01-29T08:51:44.303Z,26.00
2023-01-29T08:52:44.462Z,34.00
2023-01-29T08:53:44.626Z,37.00
2023-01-29T08:54:44.934Z,31.00
2023-01-29T08:55:45.220Z,34.00
2023-01-29T08:56:45.573Z,32.00
2023-01-29T08:57:45.753Z,31.00
2023-01-29T08:58:46.007Z,30.00
2023-01-29T08:59:46.219Z,33.00
2023-01-29T09:00:46.304Z,35.00
2023-01-29T09:01:46.556Z,33.00
2023-01-29T09:02:46.823Z,39.00
2023-01-29T09:03:46.961Z,37.00
2023-01-29T09:04:47.102Z,37.00
2023-01-29T09:05:47.257Z,44.00
2023-01-29T09:06:47.525Z,37.00
2023-01-29T09:07:47.756Z,39.00
2023-01-29T09:08:47.904Z,39.00
2023-01-29T09:09:48.056Z,40.00
2023-01-29T09:10:48.189Z,39.00
2023-01-29T09:11:48.536Z,40.00
2023-01-29T09:12:48.792Z,40.00
2023-01-29T09:13:49.040Z,41.00
2023-01-29T09:14:49.363Z,42.00
2023-01-29T09:15:49.385Z,41.00
2023-01-29T09:16:49.610Z,42.00
2023-01-29T09:17:49.861Z,49.00
2023-01-29T09:18:49.915Z,45.00
2023-01-29T09:19:50.084Z,37.00
2023-01-29T09:20:50.251Z,49.00
2023-01-29T09:21:50.517Z,48.00
2023-01-29T09:22:50.834Z,43.00
2023-01-29T09:23:50.959Z,39.00
2023-01-29T09:24:51.256Z,45.00
2023-01-29T09:25:51.569Z,45.00
2023-01-29T09:26:51.754Z,49.00
2023-01-29T09:27:51.888Z,41.00
2023-01-29T09:28:52.201Z,46.00
2023-01-29T09:29:52.512Z,45.00
2023-01-29T09:30:52.906Z,45.00
2023-01-29T09:31:53.180Z,53.00
2023-01-29T09:32:54.422Z,43.00
2023-01-29T09:33:53.415Z,41.00
2023-01-29T09:34:53.625Z,48.00
2023-01-29T09:35:53.793Z,47.00
2023-01-29T09:36:53.934Z,50.00
2023-01-29T09:37:54.234Z,47.00
2023-01-29T09:38:54.363Z,50.00
2023-01-29T09:39:54.688Z,51.00
2023-01-29T09:40:54.994Z,57.00
2023-01-29T09:41:55.253Z,51.00
2023-01-29T09:42:55.555Z,57.00
2023-01-29T09:43:55.765Z,49.00
2023-01-29T09:44:55.916Z,43.00
2023-01-29T09:45:56.104Z,53.00
2023-01-29T09:46:56.332Z,57.00
2023-01-29T09:47:56.514Z,59.00
2023-01-29T09:48:56.720Z,56.00
2023-01-29T09:49:56.872Z,58.00
2023-01-29T09:50:57.023Z,60.00
2023-01-29T09:51:57.336Z,57.00
2023-01-29T09:52:57.496Z,64.00
2023-01-29T09:53:57.809Z,60.00
2023-01-29T09:54:58.126Z,51.00
2023-01-29T09:55:58.305Z,61.00
2023-01-29T09:56:58.548Z,61.00
2023-01-29T09:57:58.703Z,62.00
2023-01-29T09:59:00.637Z,62.00
2023-01-29T09:59:59.226Z,64.00
2023-01-29T10:00:59.503Z,60.00
2023-01-29T10:01:59.915Z,60.00
2023-01-29T10:03:00.110Z,63.00
2023-01-29T10:04:00.218Z,68.00
2023-01-29T10:05:00.413Z,61.00
2023-01-29T10:06:00.692Z,55.00
2023-01-29T10:07:00.966Z,69.00
2023-01-29T10:08:01.155Z,64.00
2023-01-29T10:09:01.472Z,66.00
2023-01-29T10:10:01.847Z,70.00
2023-01-29T10:11:01.958Z,71.00
2023-01-29T10:12:02.097Z,70.00
2023-01-29T10:13:02.400Z,70.00
2023-01-29T10:14:02.587Z,68.00
2023-01-29T10:15:02.750Z,65.00
2023-01-29T10:16:02.961Z,70.00
2023-01-29T10:17:03.481Z,73.00
2023-01-29T10:18:03.830Z,81.00
2023-01-29T10:19:09.804Z,82.00
2023-01-29T10:20:03.851Z,87.00
2023-01-29T10:21:04.022Z,95.00
2023-01-29T10:22:04.167Z,81.00
2023-01-29T10:23:04.339Z,85.00
2023-01-29T10:24:04.498Z,89.00
2023-01-29T10:25:04.706Z,100.00
2023-01-29T10:26:04.955Z,101.00
2023-01-29T10:27:05.148Z,106.00
2023-01-29T10:28:05.437Z,101.00
2023-01-29T10:29:05.609Z,108.00
2023-01-29T10:30:05.824Z,102.00
2023-01-29T10:31:06.060Z,101.00
2023-01-29T10:32:06.338Z,105.00
2023-01-29T10:33:06.411Z,118.00
2023-01-29T10:34:06.714Z,107.00
2023-01-29T10:35:06.995Z,110.00
2023-01-29T10:36:07.950Z,116.00
2023-01-29T10:37:07.373Z,117.00
2023-01-29T10:38:07.558Z,120.00
2023-01-29T10:39:07.766Z,107.00
2023-01-29T10:40:07.955Z,110.00
2023-01-29T10:41:08.241Z,115.00
2023-01-29T10:42:08.517Z,122.00
2023-01-29T10:43:08.777Z,102.00
2023-01-29T10:44:08.958Z,98.00
2023-01-29T10:45:09.249Z,92.00
2023-01-29T10:46:09.408Z,91.00
2023-01-29T10:47:09.722Z,95.00
2023-01-29T10:48:09.890Z,80.00
2023-01-29T10:49:10.169Z,78.00
2023-01-29T10:50:10.371Z,78.00
2023-01-29T10:51:10.500Z,77.00
2023-01-29T10:52:10.729Z,68.00
2023-01-29T10:53:10.981Z,74.00
2023-01-29T10:54:11.163Z,69.00
2023-01-29T10:55:11.350Z,64.00
2023-01-29T10:56:22.336Z,60.00
2023-01-29T10:57:11.689Z,65.00
2023-01-29T10:58:11.964Z,66.00
2023-01-29T10:59:12.109Z,58.00
2023-01-29T11:00:12.404Z,56.00
2023-01-29T11:01:12.666Z,60.00
2023-01-29T11:02:12.713Z,54.00
2023-01-29T11:03:26.431Z,53.00
2023-01-29T11:04:13.331Z,57.00
2023-01-29T11:05:13.557Z,63.00
2023-01-29T11:06:13.837Z,55.00
2023-01-29T11:07:14.086Z,64.00
2023-01-29T11:08:14.356Z,67.00
2023-01-29T11:09:14.630Z,49.00
2023-01-29T11:10:15.089Z,60.00
2023-01-29T11:11:15.003Z,60.00
2023-01-29T11:12:15.263Z,51.00
2023-01-29T11:13:15.519Z,53.00
2023-01-29T11:14:15.833Z,52.00
2023-01-29T11:15:16.147Z,53.00
2023-01-29T11:16:16.354Z,54.00
2023-01-29T11:17:16.637Z,51.00
2023-01-29T11:18:16.876Z,51.00
2023-01-29T11:19:17.152Z,57.00
2023-01-29T11:20:17.845Z,53.00
2023-01-29T11:21:17.730Z,54.00
2023-01-29T11:22:17.955Z,54.00
2023-01-29T11:23:18.107Z,51.00
2023-01-29T11:24:18.252Z,74.00
2023-01-29T11:25:18.452Z,87.00
2023-01-29T11:26:18.641Z,96.00
2023-01-29T11:27:18.763Z,95.00
2023-01-29T11:28:19.011Z,88.00
2023-01-29T11:29:19.124Z,90.00
2023-01-29T11:30:19.661Z,87.00
2023-01-29T11:31:19.708Z,81.00
2023-01-29T11:32:19.844Z,86.00
2023-01-29T11:33:20.019Z,84.00
2023-01-29T11:34:20.169Z,87.00
2023-01-29T11:35:20.359Z,83.00
2023-01-29T11:36:20.518Z,97.00
2023-01-29T11:37:20.669Z,99.00
2023-01-29T11:38:20.920Z,79.00
2023-01-29T11:39:21.169Z,78.00
2023-01-29T11:40:21.340Z,66.00
2023-01-29T11:41:21.522Z,60.00
2023-01-29T11:42:21.832Z,65.00
2023-01-29T11:43:22.088Z,62.00
2023-01-29T11:44:22.222Z,59.00
2023-01-29T11:45:22.387Z,59.00
2023-01-29T11:46:22.628Z,61.00
2023-01-29T11:47:22.857Z,60.00
2023-01-29T11:48:23.058Z,55.00
2023-01-29T11:49:23.204Z,55.00
2023-01-29T11:50:23.512Z,63.00
2023-01-29T11:51:23.677Z,60.00
2023-01-29T11:52:23.983Z,60.00
2023-01-29T11:53:24.165Z,51.00
2023-01-29T11:54:24.275Z,53.00
2023-01-29T11:55:24.547Z,54.00
2023-01-29T11:56:24.621Z,54.00
2023-01-29T11:57:24.910Z,49.00
2023-01-29T11:58:25.109Z,50.00
2023-01-29T11:59:25.317Z,50.00
2023-01-29T12:00:25.445Z,46.00
2023-01-29T12:01:25.832Z,47.00
2023-01-29T12:02:25.896Z,42.00
2023-01-29T12:03:26.118Z,43.00
2023-01-29T12:04:26.406Z,40.00
2023-01-29T12:05:26.644Z,43.00
2023-01-29T12:06:26.943Z,37.00
2023-01-29T12:07:27.096Z,35.00
2023-01-29T12:08:27.302Z,36.00
2023-01-29T12:09:27.634Z,35.00
2023-01-29T12:10:27.986Z,34.00
2023-01-29T12:11:28.001Z,34.00
2023-01-29T12:12:28.271Z,33.00
2023-01-29T12:13:28.347Z,28.00
2023-01-29T12:14:28.540Z,31.00
2023-01-29T12:15:28.829Z,26.00
2023-01-29T12:16:29.219Z,32.00
2023-01-29T12:17:29.415Z,36.00
2023-01-29T12:18:29.583Z,40.00
2023-01-29T12:19:29.770Z,44.00
2023-01-29T12:20:30.136Z,46.00
2023-01-29T12:21:30.339Z,41.00
2023-01-29T12:22:30.508Z,43.00
2023-01-29T12:23:30.771Z,41.00
2023-01-29T12:24:30.826Z,37.00
2023-01-29T12:25:31.202Z,43.00
2023-01-29T12:26:31.592Z,37.00
2023-01-29T12:27:31.746Z,43.00
2023-01-29T12:28:32.016Z,47.00
2023-01-29T12:29:32.158Z,51.00
2023-01-29T12:30:32.408Z,47.00
2023-01-29T12:31:32.576Z,53.00
2023-01-29T12:32:32.768Z,56.00
2023-01-29T12:33:32.946Z,47.00
2023-01-29T12:34:33.201Z,45.00
2023-01-29T12:35:33.332Z,57.00
2023-01-29T12:36:33.578Z,59.00
2023-01-29T12:37:33.771Z,60.00
2023-01-29T12:38:33.902Z,56.00
2023-01-29T12:39:34.100Z,51.00
2023-01-29T12:40:34.393Z,57.00
2023-01-29T12:41:34.554Z,64.00
2023-01-29T12:42:34.759Z,69.00
2023-01-29T12:43:35.019Z,76.00
2023-01-29T12:44:35.205Z,78.00
2023-01-29T12:45:35.491Z,77.00
2023-01-29T12:46:35.763Z,76.00
2023-01-29T12:47:35.999Z,98.00
2023-01-29T12:48:36.121Z,104.00
2023-01-29T12:49:36.426Z,105.00
2023-01-29T12:50:36.605Z,113.00
2023-01-29T12:51:36.869Z,114.00
2023-01-29T12:52:37.039Z,120.00
2023-01-29T12:53:37.329Z,134.00
2023-01-29T12:54:37.626Z,133.00
2023-01-29T12:55:37.856Z,123.00
2023-01-29T12:56:38.144Z,105.00
2023-01-29T12:57:38.495Z,105.00
2023-01-29T12:58:38.701Z,105.00
2023-01-29T12:59:38.848Z,104.00
2023-01-29T13:00:39.042Z,102.00
2023-01-29T13:01:39.188Z,99.00
2023-01-29T13:02:39.354Z,101.00
2023-01-29T13:03:39.589Z,92.00
2023-01-29T13:04:39.849Z,91.00
2023-01-29T13:05:40.111Z,78.00
2023-01-29T13:06:40.440Z,68.00
2023-01-29T13:07:40.616Z,70.00
2023-01-29T13:08:40.761Z,64.00
2023-01-29T13:09:41.008Z,66.00
2023-01-29T13:10:41.199Z,66.00
2023-01-29T13:11:41.532Z,60.00